Latest  Newer  Older  Last 2 hours slideshow  Last 24 hours slideshow  Refresh every 5 minutes 
Current image  Latest image  Rain/snow radar  Cloud coverage sat images 

All time is UTC (add 2 hours to UTC in wintertime, 3 hours to UTC in DST for Latvia local time)

2020/11/29 08:20 EVRA 290820Z 06004KT 9999 FEW013 01/M00 Q1025 R36/190095 NOSIG
2020/11/29 08:20 EVLA 290820Z AUTO 05003KT 9999 FEW035/// M00/M02 Q1025
2020/11/29 08:20 EVVA 290820Z AUTO 13003KT 9999 OVC046 02/02 Q1026
2020/11/29 08:20 EYKA 290820Z 04007KT 360V080 9999 BKN015 02/M02 Q1022 R08/290095
2020/11/29 08:20 EYPA 290820Z 03006KT CAVOK M00/M01 Q1025
2020/11/29 08:20 EYSA 290820Z 07008KT 9999 OVC004 M00/M01 Q1024 R32R/29//95 R32L/29//95 YLO NOSIG
2020/11/29 08:20 EYVI 290820Z 03008KT 9999 SCT007 BKN047 M00/M01 Q1020 R01/2///95 NOSIG

2020/11/29 08:20 EEKE 290820Z 05007KT 010V080 9999 FEW020 SCT028 02/01 Q1027

2020/11/29 08:20 EETN 290820Z 12006KT 9999 SCT010 FEW017CB BKN030 M00/M02 Q1029 R08/31//95 NOSIG
2020/11/29 08:20 EETU 290820Z 05006KT 9999 BKN008 OVC011 01/M01 Q1027
   RIGA AIRPORT     EVRA               56 55N  023 58E   10   X     T          6 LV
   LIEPAJA INTL     EVLA        26406  56 31N  021 06E    4   X                8 LV
   VENTPILS         EVVA               57 21N  021 33E    6   X                8 LV
   KAUNAS           EYKA               54 54N  023 55E   77   X     T          6 LT
   PALANGA INTL     EYPA               55 55N  021 03E   10   X                6 LT
   SIAULIAI INTL    EYSA               55 54N  023 24E  135   X     T          6 LT
   VILNIUS INTL     EYVI        26730  54 38N  025 17E  197   X     T          6 LT
   KARDLA           EEKA        26116  58 59N  022 50E    4   X                8 EE
   KURESSAARE       EEKE               58 14N  022 31E    4   X                8 EE
   PARNU            EEPU               58 25N  024 28E   14   X                8 EE
   TALLINN          EETN        26038  59 24N  024 49E   40   X     T          8 EE
   TARTU            EETU               58 19N  026 41E   67   X                8 EE